sensor_id;sensor_type;location;lat;lon;timestamp;pressure;altitude;pressure_sealevel;temperature;humidity
75290;BME280;63883;48.996;20.804;2023-08-30T00:00:45;95534.16;;;17.40;100.00
75290;BME280;63883;48.996;20.804;2023-08-30T00:03:30;95540.84;;;17.43;100.00
75290;BME280;63883;48.996;20.804;2023-08-30T00:06:02;95535.47;;;17.46;100.00
75290;BME280;63883;48.996;20.804;2023-08-30T00:08:27;95537.22;;;17.45;100.00
75290;BME280;63883;48.996;20.804;2023-08-30T00:10:53;95523.00;;;17.40;100.00
75290;BME280;63883;48.996;20.804;2023-08-30T00:13:19;95518.41;;;17.32;100.00
75290;BME280;63883;48.996;20.804;2023-08-30T00:15:44;95517.19;;;17.25;100.00
75290;BME280;63883;48.996;20.804;2023-08-30T00:18:10;95525.34;;;17.19;100.00
75290;BME280;63883;48.996;20.804;2023-08-30T00:20:36;95523.09;;;17.14;100.00
75290;BME280;63883;48.996;20.804;2023-08-30T00:23:01;95519.56;;;17.15;100.00
75290;BME280;63883;48.996;20.804;2023-08-30T00:25:27;95518.97;;;17.12;100.00
75290;BME280;63883;48.996;20.804;2023-08-30T00:27:53;95532.91;;;17.09;100.00
75290;BME280;63883;48.996;20.804;2023-08-30T00:30:19;95544.13;;;17.08;100.00
75290;BME280;63883;48.996;20.804;2023-08-30T00:32:44;95546.94;;;17.05;100.00
75290;BME280;63883;48.996;20.804;2023-08-30T00:35:10;95549.50;;;17.05;100.00
75290;BME280;63883;48.996;20.804;2023-08-30T00:37:36;95551.03;;;17.08;100.00
75290;BME280;63883;48.996;20.804;2023-08-30T00:40:02;95535.47;;;17.09;100.00
75290;BME280;63883;48.996;20.804;2023-08-30T00:42:27;95526.81;;;17.10;100.00
75290;BME280;63883;48.996;20.804;2023-08-30T00:44:53;95526.00;;;17.10;100.00
75290;BME280;63883;48.996;20.804;2023-08-30T00:47:18;95531.16;;;17.10;100.00
75290;BME280;63883;48.996;20.804;2023-08-30T00:49:44;95532.91;;;17.09;100.00
75290;BME280;63883;48.996;20.804;2023-08-30T00:52:10;95531.47;;;17.05;100.00
75290;BME280;63883;48.996;20.804;2023-08-30T00:54:37;95522.44;;;17.00;100.00
75290;BME280;63883;48.996;20.804;2023-08-30T00:57:04;95523.94;;;17.02;100.00
75290;BME280;63883;48.996;20.804;2023-08-30T00:59:32;95514.81;;;16.98;100.00
75290;BME280;63883;48.996;20.804;2023-08-30T01:01:59;95507.50;;;16.92;100.00
75290;BME280;63883;48.996;20.804;2023-08-30T01:04:25;95505.13;;;16.89;100.00
75290;BME280;63883;48.996;20.804;2023-08-30T01:06:50;95495.97;;;16.85;100.00
75290;BME280;63883;48.996;20.804;2023-08-30T01:09:17;95493.16;;;16.88;100.00
75290;BME280;63883;48.996;20.804;2023-08-30T01:12:07;95495.31;;;16.94;100.00
75290;BME280;63883;48.996;20.804;2023-08-30T01:14:41;95502.75;;;16.99;100.00
75290;BME280;63883;48.996;20.804;2023-08-30T01:17:08;95497.16;;;17.05;100.00
75290;BME280;63883;48.996;20.804;2023-08-30T01:19:48;95492.81;;;17.05;100.00
75290;BME280;63883;48.996;20.804;2023-08-30T01:22:21;95487.16;;;17.00;100.00
75290;BME280;63883;48.996;20.804;2023-08-30T01:25:17;95472.25;;;16.93;100.00
75290;BME280;63883;48.996;20.804;2023-08-30T01:27:47;95478.44;;;16.90;100.00
75290;BME280;63883;48.996;20.804;2023-08-30T01:30:14;95471.84;;;16.86;100.00
75290;BME280;63883;48.996;20.804;2023-08-30T01:32:41;95466.91;;;16.83;100.00
75290;BME280;63883;48.996;20.804;2023-08-30T01:35:08;95462.91;;;16.79;100.00
75290;BME280;63883;48.996;20.804;2023-08-30T01:37:34;95466.53;;;16.76;100.00
75290;BME280;63883;48.996;20.804;2023-08-30T01:40:02;95462.41;;;16.74;100.00
75290;BME280;63883;48.996;20.804;2023-08-30T01:42:30;95470.84;;;16.76;100.00
75290;BME280;63883;48.996;20.804;2023-08-30T01:44:58;95464.78;;;16.77;100.00
75290;BME280;63883;48.996;20.804;2023-08-30T01:47:27;95467.56;;;16.74;100.00
75290;BME280;63883;48.996;20.804;2023-08-30T01:49:54;95470.56;;;16.68;100.00
75290;BME280;63883;48.996;20.804;2023-08-30T01:52:22;95465.72;;;16.63;100.00
75290;BME280;63883;48.996;20.804;2023-08-30T01:54:51;95455.63;;;16.60;100.00
75290;BME280;63883;48.996;20.804;2023-08-30T01:57:17;95453.34;;;16.56;100.00
75290;BME280;63883;48.996;20.804;2023-08-30T01:59:43;95455.94;;;16.56;100.00
75290;BME280;63883;48.996;20.804;2023-08-30T02:02:08;95456.84;;;16.55;100.00
75290;BME280;63883;48.996;20.804;2023-08-30T02:04:34;95450.06;;;16.54;100.00
75290;BME280;63883;48.996;20.804;2023-08-30T02:07:23;95452.44;;;16.57;100.00
75290;BME280;63883;48.996;20.804;2023-08-30T02:09:57;95452.19;;;16.60;100.00
75290;BME280;63883;48.996;20.804;2023-08-30T02:12:29;95460.84;;;16.59;100.00
75290;BME280;63883;48.996;20.804;2023-08-30T02:14:58;95473.13;;;16.55;100.00
75290;BME280;63883;48.996;20.804;2023-08-30T02:17:25;95484.44;;;16.53;100.00
75290;BME280;63883;48.996;20.804;2023-08-30T02:19:51;95486.28;;;16.51;100.00
75290;BME280;63883;48.996;20.804;2023-08-30T02:22:19;95489.78;;;16.50;100.00
75290;BME280;63883;48.996;20.804;2023-08-30T02:24:45;95478.81;;;16.48;100.00
75290;BME280;63883;48.996;20.804;2023-08-30T02:27:10;95480.44;;;16.49;100.00
75290;BME280;63883;48.996;20.804;2023-08-30T02:29:36;95480.16;;;16.40;100.00
75290;BME280;63883;48.996;20.804;2023-08-30T02:32:02;95481.78;;;16.42;100.00
75290;BME280;63883;48.996;20.804;2023-08-30T02:34:27;95486.53;;;16.35;100.00
75290;BME280;63883;48.996;20.804;2023-08-30T02:36:53;95487.47;;;16.34;100.00
75290;BME280;63883;48.996;20.804;2023-08-30T02:39:19;95494.34;;;16.33;100.00
75290;BME280;63883;48.996;20.804;2023-08-30T02:41:44;95497.13;;;16.30;100.00
75290;BME280;63883;48.996;20.804;2023-08-30T02:44:13;95495.06;;;16.35;100.00
75290;BME280;63883;48.996;20.804;2023-08-30T02:46:39;95496.00;;;16.34;100.00
75290;BME280;63883;48.996;20.804;2023-08-30T02:49:05;95494.97;;;16.37;100.00
75290;BME280;63883;48.996;20.804;2023-08-30T02:51:31;95495.88;;;16.36;100.00
75290;BME280;63883;48.996;20.804;2023-08-30T02:53:57;95497.84;;;16.32;100.00
75290;BME280;63883;48.996;20.804;2023-08-30T02:56:22;95495.19;;;16.34;100.00
75290;BME280;63883;48.996;20.804;2023-08-30T02:58:48;95495.06;;;16.35;100.00
75290;BME280;63883;48.996;20.804;2023-08-30T03:01:14;95506.31;;;16.34;100.00
75290;BME280;63883;48.996;20.804;2023-08-30T03:03:39;95506.31;;;16.34;100.00
75290;BME280;63883;48.996;20.804;2023-08-30T03:06:05;95509.06;;;16.31;100.00
75290;BME280;63883;48.996;20.804;2023-08-30T03:08:31;95499.69;;;16.30;100.00
75290;BME280;63883;48.996;20.804;2023-08-30T03:11:10;95507.22;;;16.33;100.00
75290;BME280;63883;48.996;20.804;2023-08-30T03:13:36;95510.41;;;16.37;100.00
75290;BME280;63883;48.996;20.804;2023-08-30T03:16:13;95504.22;;;16.39;100.00
75290;BME280;63883;48.996;20.804;2023-08-30T03:18:40;95514.22;;;16.44;100.00
75290;BME280;63883;48.996;20.804;2023-08-30T03:21:06;95512.38;;;16.46;100.00
75290;BME280;63883;48.996;20.804;2023-08-30T03:23:32;95505.38;;;16.48;100.00
75290;BME280;63883;48.996;20.804;2023-08-30T03:25:59;95502.78;;;16.48;100.00
75290;BME280;63883;48.996;20.804;2023-08-30T03:28:25;95507.63;;;16.53;100.00
75290;BME280;63883;48.996;20.804;2023-08-30T03:30:51;95505.88;;;16.53;100.00
75290;BME280;63883;48.996;20.804;2023-08-30T03:33:16;95506.69;;;16.54;100.00
75290;BME280;63883;48.996;20.804;2023-08-30T03:35:42;95503.19;;;16.55;100.00
75290;BME280;63883;48.996;20.804;2023-08-30T03:38:08;95503.38;;;16.52;100.00
75290;BME280;63883;48.996;20.804;2023-08-30T03:40:33;95491.34;;;16.52;100.00
75290;BME280;63883;48.996;20.804;2023-08-30T03:42:59;95499.91;;;16.53;100.00
75290;BME280;63883;48.996;20.804;2023-08-30T03:45:25;95506.69;;;16.54;100.00
75290;BME280;63883;48.996;20.804;2023-08-30T03:47:50;95496.31;;;16.55;100.00
75290;BME280;63883;48.996;20.804;2023-08-30T03:50:17;95499.69;;;16.56;100.00
75290;BME280;63883;48.996;20.804;2023-08-30T03:52:42;95500.63;;;16.55;100.00
75290;BME280;63883;48.996;20.804;2023-08-30T03:55:08;95499.81;;;16.54;100.00
75290;BME280;63883;48.996;20.804;2023-08-30T03:57:34;95498.88;;;16.55;100.00
75290;BME280;63883;48.996;20.804;2023-08-30T03:59:59;95496.41;;;16.54;100.00
75290;BME280;63883;48.996;20.804;2023-08-30T04:02:25;95495.47;;;16.55;100.00
75290;BME280;63883;48.996;20.804;2023-08-30T04:04:51;95499.41;;;16.60;100.00
75290;BME280;63883;48.996;20.804;2023-08-30T04:07:16;95501.66;;;16.65;100.00
75290;BME280;63883;48.996;20.804;2023-08-30T04:09:42;95505.88;;;16.66;100.00
75290;BME280;63883;48.996;20.804;2023-08-30T04:12:08;95506.09;;;16.63;100.00
75290;BME280;63883;48.996;20.804;2023-08-30T04:14:33;95521.94;;;16.57;100.00
75290;BME280;63883;48.996;20.804;2023-08-30T04:16:59;95516.25;;;16.52;100.00
75290;BME280;63883;48.996;20.804;2023-08-30T04:19:25;95512.97;;;16.50;100.00
75290;BME280;63883;48.996;20.804;2023-08-30T04:21:51;95506.28;;;16.47;100.00
75290;BME280;63883;48.996;20.804;2023-08-30T04:24:16;95513.91;;;16.49;100.00
75290;BME280;63883;48.996;20.804;2023-08-30T04:26:42;95505.25;;;16.50;100.00
75290;BME280;63883;48.996;20.804;2023-08-30T04:29:08;95505.13;;;16.51;100.00
75290;BME280;63883;48.996;20.804;2023-08-30T04:31:34;95499.81;;;16.54;100.00
75290;BME280;63883;48.996;20.804;2023-08-30T04:34:00;95500.63;;;16.55;100.00
75290;BME280;63883;48.996;20.804;2023-08-30T04:36:25;95503.94;;;16.57;100.00
75290;BME280;63883;48.996;20.804;2023-08-30T04:38:51;95500.53;;;16.56;100.00
75290;BME280;63883;48.996;20.804;2023-08-30T04:41:17;95502.38;;;16.54;100.00
75290;BME280;63883;48.996;20.804;2023-08-30T04:43:42;95506.78;;;16.52;100.00
75290;BME280;63883;48.996;20.804;2023-08-30T04:46:09;95498.47;;;16.49;100.00
75290;BME280;63883;48.996;20.804;2023-08-30T04:48:34;95503.63;;;16.49;100.00
75290;BME280;63883;48.996;20.804;2023-08-30T04:51:04;95515.53;;;16.50;100.00
75290;BME280;63883;48.996;20.804;2023-08-30T04:53:30;95513.91;;;16.49;100.00
75290;BME280;63883;48.996;20.804;2023-08-30T04:55:56;95515.75;;;16.47;100.00
75290;BME280;63883;48.996;20.804;2023-08-30T04:58:22;95519.06;;;16.49;100.00
75290;BME280;63883;48.996;20.804;2023-08-30T05:00:48;95520.69;;;16.50;100.00
75290;BME280;63883;48.996;20.804;2023-08-30T05:03:13;95516.59;;;16.47;100.00
75290;BME280;63883;48.996;20.804;2023-08-30T05:05:39;95513.09;;;16.48;100.00
75290;BME280;63883;48.996;20.804;2023-08-30T05:08:05;95512.97;;;16.50;100.00
75290;BME280;63883;48.996;20.804;2023-08-30T05:10:32;95510.28;;;16.51;100.00
75290;BME280;63883;48.996;20.804;2023-08-30T05:12:57;95514.31;;;16.55;100.00
75290;BME280;63883;48.996;20.804;2023-08-30T05:15:23;95512.34;;;16.59;100.00
75290;BME280;63883;48.996;20.804;2023-08-30T05:17:49;95510.44;;;16.62;100.00
75290;BME280;63883;48.996;20.804;2023-08-30T05:20:14;95505.06;;;16.65;100.00
75290;BME280;63883;48.996;20.804;2023-08-30T05:22:40;95507.34;;;16.70;100.00
75290;BME280;63883;48.996;20.804;2023-08-30T05:25:06;95512.06;;;16.76;100.00
75290;BME280;63883;48.996;20.804;2023-08-30T05:27:31;95520.50;;;16.78;100.00
75290;BME280;63883;48.996;20.804;2023-08-30T05:29:57;95519.47;;;16.81;100.00
75290;BME280;63883;48.996;20.804;2023-08-30T05:32:23;95525.94;;;16.86;100.00
75290;BME280;63883;48.996;20.804;2023-08-30T05:34:48;95522.22;;;16.90;100.00
75290;BME280;63883;48.996;20.804;2023-08-30T05:37:14;95526.03;;;16.97;100.00
75290;BME280;63883;48.996;20.804;2023-08-30T05:39:40;95524.06;;;17.01;100.00
75290;BME280;63883;48.996;20.804;2023-08-30T05:42:05;95525.50;;;17.05;100.00
75290;BME280;63883;48.996;20.804;2023-08-30T05:44:31;95532.59;;;17.01;100.00
75290;BME280;63883;48.996;20.804;2023-08-30T05:46:57;95521.66;;;17.10;100.00
75290;BME280;63883;48.996;20.804;2023-08-30T05:49:22;95528.97;;;17.16;100.00
75290;BME280;63883;48.996;20.804;2023-08-30T05:51:48;95527.59;;;17.24;100.00
75290;BME280;63883;48.996;20.804;2023-08-30T05:54:14;95519.38;;;17.18;100.00
75290;BME280;63883;48.996;20.804;2023-08-30T05:56:40;95521.03;;;17.20;100.00
75290;BME280;63883;48.996;20.804;2023-08-30T05:59:05;95517.09;;;17.27;100.00
75290;BME280;63883;48.996;20.804;2023-08-30T06:01:31;95524.03;;;17.37;100.00
75290;BME280;63883;48.996;20.804;2023-08-30T06:03:57;95526.91;;;17.45;100.00
75290;BME280;63883;48.996;20.804;2023-08-30T06:06:22;95525.63;;;17.51;100.00
75290;BME280;63883;48.996;20.804;2023-08-30T06:08:48;95521.09;;;17.54;100.00
75290;BME280;63883;48.996;20.804;2023-08-30T06:11:13;95522.13;;;17.52;100.00
75290;BME280;63883;48.996;20.804;2023-08-30T06:13:40;95528.94;;;17.53;100.00
75290;BME280;63883;48.996;20.804;2023-08-30T06:16:06;95540.91;;;17.54;100.00
75290;BME280;63883;48.996;20.804;2023-08-30T06:18:32;95536.06;;;17.62;100.00
75290;BME280;63883;48.996;20.804;2023-08-30T06:20:58;95540.69;;;17.81;100.00
75290;BME280;63883;48.996;20.804;2023-08-30T06:23:24;95541.13;;;17.99;100.00
75290;BME280;63883;48.996;20.804;2023-08-30T06:25:58;95543.38;;;18.03;100.00
75290;BME280;63883;48.996;20.804;2023-08-30T06:28:25;95539.75;;;18.17;100.00
75290;BME280;63883;48.996;20.804;2023-08-30T06:30:50;95543.31;;;18.27;100.00
75290;BME280;63883;48.996;20.804;2023-08-30T06:33:16;95547.66;;;18.38;100.00
75290;BME280;63883;48.996;20.804;2023-08-30T06:35:42;95551.78;;;18.40;100.00
75290;BME280;63883;48.996;20.804;2023-08-30T06:38:08;95547.69;;;18.49;100.00
75290;BME280;63883;48.996;20.804;2023-08-30T06:40:33;95539.06;;;18.61;100.00
75290;BME280;63883;48.996;20.804;2023-08-30T06:42:59;95540.59;;;18.75;100.00
75290;BME280;63883;48.996;20.804;2023-08-30T06:45:25;95550.44;;;18.81;100.00
75290;BME280;63883;48.996;20.804;2023-08-30T06:47:51;95551.03;;;18.95;100.00
75290;BME280;63883;48.996;20.804;2023-08-30T06:50:19;95547.88;;;19.14;100.00
75290;BME280;63883;48.996;20.804;2023-08-30T06:52:45;95555.59;;;19.25;100.00
75290;BME280;63883;48.996;20.804;2023-08-30T06:55:11;95549.00;;;19.43;100.00
75290;BME280;63883;48.996;20.804;2023-08-30T06:57:36;95552.41;;;19.55;100.00
75290;BME280;63883;48.996;20.804;2023-08-30T07:00:02;95547.06;;;19.68;98.74
75290;BME280;63883;48.996;20.804;2023-08-30T07:02:36;95549.84;;;19.87;100.00
75290;BME280;63883;48.996;20.804;2023-08-30T07:05:02;95546.03;;;20.02;100.00
75290;BME280;63883;48.996;20.804;2023-08-30T07:07:30;95551.06;;;20.24;99.51
75290;BME280;63883;48.996;20.804;2023-08-30T07:09:55;95558.31;;;20.42;98.29
75290;BME280;63883;48.996;20.804;2023-08-30T07:12:21;95560.84;;;20.53;95.29
75290;BME280;63883;48.996;20.804;2023-08-30T07:14:46;95550.47;;;20.74;93.42
75290;BME280;63883;48.996;20.804;2023-08-30T07:17:12;95564.28;;;20.84;90.54
75290;BME280;63883;48.996;20.804;2023-08-30T07:19:38;95559.56;;;20.98;90.83
75290;BME280;63883;48.996;20.804;2023-08-30T07:22:03;95579.78;;;21.04;89.49
75290;BME280;63883;48.996;20.804;2023-08-30T07:24:29;95579.78;;;20.74;88.72
75290;BME280;63883;48.996;20.804;2023-08-30T07:26:55;95586.03;;;20.72;88.23
75290;BME280;63883;48.996;20.804;2023-08-30T07:29:21;95579.59;;;20.66;88.16
75290;BME280;63883;48.996;20.804;2023-08-30T07:31:47;95585.03;;;20.63;89.95
75290;BME280;63883;48.996;20.804;2023-08-30T07:34:12;95586.69;;;20.64;89.64
75290;BME280;63883;48.996;20.804;2023-08-30T07:36:38;95582.00;;;20.79;90.95
75290;BME280;63883;48.996;20.804;2023-08-30T07:39:04;95581.53;;;20.94;87.61
75290;BME280;63883;48.996;20.804;2023-08-30T07:41:31;95579.94;;;21.13;86.98
75290;BME280;63883;48.996;20.804;2023-08-30T07:43:57;95586.88;;;21.33;88.29
75290;BME280;63883;48.996;20.804;2023-08-30T07:46:22;95584.44;;;21.31;85.65
75290;BME280;63883;48.996;20.804;2023-08-30T07:48:48;95579.72;;;21.16;87.27
75290;BME280;63883;48.996;20.804;2023-08-30T07:51:14;95587.84;;;21.01;86.79
75290;BME280;63883;48.996;20.804;2023-08-30T07:53:39;95572.56;;;21.08;88.48
75290;BME280;63883;48.996;20.804;2023-08-30T07:56:05;95574.28;;;20.98;87.81
75290;BME280;63883;48.996;20.804;2023-08-30T07:58:31;95578.84;;;21.05;86.95
75290;BME280;63883;48.996;20.804;2023-08-30T08:00:56;95584.88;;;20.85;85.94
75290;BME280;63883;48.996;20.804;2023-08-30T08:03:22;95573.50;;;20.77;86.54
75290;BME280;63883;48.996;20.804;2023-08-30T08:05:48;95578.06;;;20.84;85.43
75290;BME280;63883;48.996;20.804;2023-08-30T08:08:14;95579.88;;;20.93;85.10
75290;BME280;63883;48.996;20.804;2023-08-30T08:10:41;95577.06;;;21.06;85.43
75290;BME280;63883;48.996;20.804;2023-08-30T08:13:07;95576.25;;;21.05;84.99
75290;BME280;63883;48.996;20.804;2023-08-30T08:15:33;95573.81;;;21.14;86.30
75290;BME280;63883;48.996;20.804;2023-08-30T08:18:00;95567.75;;;21.24;84.16
75290;BME280;63883;48.996;20.804;2023-08-30T08:20:28;95559.31;;;21.41;82.93
75290;BME280;63883;48.996;20.804;2023-08-30T08:22:53;95568.47;;;21.36;81.72
75290;BME280;63883;48.996;20.804;2023-08-30T08:25:19;95564.06;;;21.27;82.39
75290;BME280;63883;48.996;20.804;2023-08-30T08:27:46;95562.59;;;21.34;82.22
75290;BME280;63883;48.996;20.804;2023-08-30T08:30:12;95563.41;;;21.25;82.45
75290;BME280;63883;48.996;20.804;2023-08-30T08:32:38;95567.75;;;21.24;81.93
75290;BME280;63883;48.996;20.804;2023-08-30T08:35:04;95567.88;;;21.23;84.91
75290;BME280;63883;48.996;20.804;2023-08-30T08:37:31;95564.06;;;21.27;83.18
75290;BME280;63883;48.996;20.804;2023-08-30T08:39:57;95578.59;;;21.39;82.79
75290;BME280;63883;48.996;20.804;2023-08-30T08:42:22;95572.13;;;21.33;84.02
75290;BME280;63883;48.996;20.804;2023-08-30T08:44:51;95578.31;;;21.42;82.01
75290;BME280;63883;48.996;20.804;2023-08-30T08:47:19;95578.06;;;21.45;83.52
75290;BME280;63883;48.996;20.804;2023-08-30T08:49:46;95566.97;;;21.43;82.89
75290;BME280;63883;48.996;20.804;2023-08-30T08:52:14;95569.44;;;21.54;83.31
75290;BME280;63883;48.996;20.804;2023-08-30T08:54:40;95568.13;;;21.60;80.65
75290;BME280;63883;48.996;20.804;2023-08-30T08:57:07;95569.50;;;21.73;79.05
75290;BME280;63883;48.996;20.804;2023-08-30T08:59:32;95567.16;;;21.70;79.35
75290;BME280;63883;48.996;20.804;2023-08-30T09:02:00;95559.16;;;22.12;80.28
75290;BME280;63883;48.996;20.804;2023-08-30T09:04:26;95564.22;;;22.13;76.92
75290;BME280;63883;48.996;20.804;2023-08-30T09:06:54;95576.63;;;21.91;78.17
75290;BME280;63883;48.996;20.804;2023-08-30T09:09:20;95572.03;;;22.23;77.98
75290;BME280;63883;48.996;20.804;2023-08-30T09:11:47;95566.91;;;22.50;78.07
75290;BME280;63883;48.996;20.804;2023-08-30T09:14:12;95575.78;;;22.67;76.96
75290;BME280;63883;48.996;20.804;2023-08-30T09:16:38;95578.50;;;22.85;76.25
75290;BME280;63883;48.996;20.804;2023-08-30T09:19:04;95584.41;;;22.77;73.93
75290;BME280;63883;48.996;20.804;2023-08-30T09:21:30;95585.41;;;22.76;74.63
75290;BME280;63883;48.996;20.804;2023-08-30T09:24:02;95587.00;;;22.77;74.85
75290;BME280;63883;48.996;20.804;2023-08-30T09:26:30;95589.78;;;22.76;73.75
75290;BME280;63883;48.996;20.804;2023-08-30T09:29:04;95585.50;;;22.65;75.12
75290;BME280;63883;48.996;20.804;2023-08-30T09:31:38;95588.28;;;22.54;76.56
75290;BME280;63883;48.996;20.804;2023-08-30T09:34:05;95592.66;;;22.44;75.21
75290;BME280;63883;48.996;20.804;2023-08-30T09:36:48;95588.84;;;22.38;75.35
75290;BME280;63883;48.996;20.804;2023-08-30T09:39:15;95589.53;;;22.40;75.82
75290;BME280;63883;48.996;20.804;2023-08-30T09:41:42;95593.44;;;22.64;74.40
75290;BME280;63883;48.996;20.804;2023-08-30T09:44:15;95590.22;;;22.98;73.34
75290;BME280;63883;48.996;20.804;2023-08-30T09:46:46;95585.66;;;23.47;72.92
75290;BME280;63883;48.996;20.804;2023-08-30T09:49:12;95575.34;;;23.83;70.46
75290;BME280;63883;48.996;20.804;2023-08-30T09:51:39;95577.00;;;24.37;69.54
75290;BME280;63883;48.996;20.804;2023-08-30T09:54:17;95576.59;;;25.19;65.55
75290;BME280;63883;48.996;20.804;2023-08-30T09:56:43;95579.97;;;25.45;63.53
75290;BME280;63883;48.996;20.804;2023-08-30T09:59:11;95581.28;;;25.99;59.55
75290;BME280;63883;48.996;20.804;2023-08-30T10:01:37;95575.66;;;26.28;56.76
75290;BME280;63883;48.996;20.804;2023-08-30T10:04:04;95567.59;;;26.78;55.40
75290;BME280;63883;48.996;20.804;2023-08-30T10:06:30;95571.41;;;26.43;55.45
75290;BME280;63883;48.996;20.804;2023-08-30T10:08:57;95571.28;;;25.87;54.27
75290;BME280;63883;48.996;20.804;2023-08-30T10:11:24;95565.81;;;25.22;58.31
75290;BME280;63883;48.996;20.804;2023-08-30T10:13:51;95560.88;;;25.11;60.28
75290;BME280;63883;48.996;20.804;2023-08-30T10:16:19;95559.41;;;24.82;61.42
75290;BME280;63883;48.996;20.804;2023-08-30T10:18:52;95568.53;;;24.61;60.81
75290;BME280;63883;48.996;20.804;2023-08-30T10:21:20;95568.88;;;24.40;61.72
75290;BME280;63883;48.996;20.804;2023-08-30T10:23:49;95557.09;;;24.00;63.93
75290;BME280;63883;48.996;20.804;2023-08-30T10:26:17;95554.06;;;23.87;65.53
75290;BME280;63883;48.996;20.804;2023-08-30T10:28:44;95553.78;;;23.63;65.87
75290;BME280;63883;48.996;20.804;2023-08-30T10:31:12;95546.56;;;23.57;67.33
75290;BME280;63883;48.996;20.804;2023-08-30T10:33:49;95539.53;;;23.40;69.49
75290;BME280;63883;48.996;20.804;2023-08-30T10:36:20;95547.34;;;23.40;68.42
75290;BME280;63883;48.996;20.804;2023-08-30T10:38:53;95545.38;;;23.42;68.21
75290;BME280;63883;48.996;20.804;2023-08-30T10:41:24;95541.81;;;23.25;68.52
75290;BME280;63883;48.996;20.804;2023-08-30T10:43:59;95540.84;;;23.26;69.05
75290;BME280;63883;48.996;20.804;2023-08-30T10:46:30;95537.19;;;23.19;68.83
75290;BME280;63883;48.996;20.804;2023-08-30T10:49:08;95534.84;;;23.16;66.75
75290;BME280;63883;48.996;20.804;2023-08-30T10:51:36;95543.41;;;22.98;68.84
75290;BME280;63883;48.996;20.804;2023-08-30T10:54:23;95541.06;;;23.05;69.52
75290;BME280;63883;48.996;20.804;2023-08-30T10:59:19;95524.59;;;23.69;66.22
75290;BME280;63883;48.996;20.804;2023-08-30T11:01:46;95532.97;;;24.16;63.70
75290;BME280;63883;48.996;20.804;2023-08-30T11:04:15;95527.66;;;24.43;63.32
75290;BME280;63883;48.996;20.804;2023-08-30T11:06:47;95527.31;;;24.64;62.98
75290;BME280;63883;48.996;20.804;2023-08-30T11:09:14;95528.44;;;24.36;64.09
75290;BME280;63883;48.996;20.804;2023-08-30T11:11:43;95528.81;;;24.05;64.33
75290;BME280;63883;48.996;20.804;2023-08-30T11:14:10;95526.59;;;23.75;64.79
75290;BME280;63883;48.996;20.804;2023-08-30T11:16:36;95530.28;;;23.55;66.52
75290;BME280;63883;48.996;20.804;2023-08-30T11:19:07;95536.84;;;23.31;66.63
75290;BME280;63883;48.996;20.804;2023-08-30T11:21:35;95538.00;;;23.19;68.61
75290;BME280;63883;48.996;20.804;2023-08-30T11:24:03;95534.97;;;23.24;68.26
75290;BME280;63883;48.996;20.804;2023-08-30T11:26:29;95547.81;;;23.25;68.33
75290;BME280;63883;48.996;20.804;2023-08-30T11:28:55;95539.72;;;24.62;63.78
75290;BME280;63883;48.996;20.804;2023-08-30T11:31:24;95539.19;;;26.27;57.86
75290;BME280;63883;48.996;20.804;2023-08-30T11:33:57;95532.31;;;27.30;53.95
75290;BME280;63883;48.996;20.804;2023-08-30T11:36:25;95533.38;;;27.04;53.89
75290;BME280;63883;48.996;20.804;2023-08-30T11:38:55;95531.75;;;28.27;52.03
75290;BME280;63883;48.996;20.804;2023-08-30T11:41:21;95528.28;;;29.01;48.82
75290;BME280;63883;48.996;20.804;2023-08-30T11:43:48;95518.94;;;29.28;48.05
75290;BME280;63883;48.996;20.804;2023-08-30T11:46:14;95520.09;;;29.55;47.28
75290;BME280;63883;48.996;20.804;2023-08-30T11:48:40;95520.56;;;29.59;45.90
75290;BME280;63883;48.996;20.804;2023-08-30T11:51:07;95523.94;;;30.10;42.61
75290;BME280;63883;48.996;20.804;2023-08-30T11:53:34;95526.16;;;29.56;45.66
75290;BME280;63883;48.996;20.804;2023-08-30T11:56:00;95519.13;;;28.83;46.02
75290;BME280;63883;48.996;20.804;2023-08-30T11:58:26;95517.84;;;27.73;47.34
75290;BME280;63883;48.996;20.804;2023-08-30T12:00:53;95507.72;;;27.31;49.94
75290;BME280;63883;48.996;20.804;2023-08-30T12:03:20;95502.91;;;27.11;51.20
75290;BME280;63883;48.996;20.804;2023-08-30T12:05:49;95496.66;;;27.51;48.09
75290;BME280;63883;48.996;20.804;2023-08-30T12:08:24;95505.59;;;28.19;47.41
75290;BME280;63883;48.996;20.804;2023-08-30T12:10:49;95498.22;;;27.91;47.55
75290;BME280;63883;48.996;20.804;2023-08-30T12:13:28;95499.72;;;27.63;48.74
75290;BME280;63883;48.996;20.804;2023-08-30T12:15:55;95495.75;;;27.36;49.38
75290;BME280;63883;48.996;20.804;2023-08-30T12:18:26;95482.88;;;27.27;50.04
75290;BME280;63883;48.996;20.804;2023-08-30T12:21:12;95488.44;;;27.24;50.68
75290;BME280;63883;48.996;20.804;2023-08-30T12:23:38;95474.53;;;28.45;46.91
75290;BME280;63883;48.996;20.804;2023-08-30T12:26:08;95478.56;;;28.85;46.47
75290;BME280;63883;48.996;20.804;2023-08-30T12:28:41;95484.22;;;29.33;45.29
75290;BME280;63883;48.996;20.804;2023-08-30T12:31:10;95473.38;;;28.25;47.45
75290;BME280;63883;48.996;20.804;2023-08-30T12:33:37;95473.94;;;27.44;49.22
75290;BME280;63883;48.996;20.804;2023-08-30T12:36:03;95478.63;;;28.25;48.26
75290;BME280;63883;48.996;20.804;2023-08-30T12:38:29;95487.56;;;28.53;45.36
75290;BME280;63883;48.996;20.804;2023-08-30T12:40:56;95474.16;;;27.65;47.55
75290;BME280;63883;48.996;20.804;2023-08-30T12:43:22;95487.03;;;27.97;46.35
75290;BME280;63883;48.996;20.804;2023-08-30T12:45:49;95477.84;;;27.09;47.63
75290;BME280;63883;48.996;20.804;2023-08-30T12:48:17;95478.63;;;26.78;49.21